Terminal Aerodrome Forecast
Issued by NWS

Home | Current Version | Previous Version | Graphics & Text | Print | Product List | Glossary On
Versions: 1 2 3 4 5 6 7 8 9 10 11 12 13 14 15 16 17 18 19
736
FTUS43 KFGF 231021 AAB
TAFBJI
TAF AMD
KBJI 231021Z 2310/2406 02009KT P6SM SCT020 OVC035
      TEMPO 2310/2314 P6SM -RASN OVC015
     FM231800 08009KT P6SM BKN020 OVC025=

USA.gov is the U.S. government's official web portal to all federal, state and local government web resources and services.